sensor_id;sensor_type;location;lat;lon;timestamp;P1;durP1;ratioP1;P2;durP2;ratioP2
76894;SDS011;65855;42.030;13.078;2024-01-25T00:00:14;2.87;;;1.80;;
76894;SDS011;65855;42.030;13.078;2024-01-25T00:02:39;1.70;;;1.00;;
76894;SDS011;65855;42.030;13.078;2024-01-25T00:05:04;3.60;;;1.77;;
76894;SDS011;65855;42.030;13.078;2024-01-25T00:07:30;4.32;;;2.60;;
76894;SDS011;65855;42.030;13.078;2024-01-25T00:09:55;8.93;;;1.83;;
76894;SDS011;65855;42.030;13.078;2024-01-25T00:12:22;8.23;;;2.70;;
76894;SDS011;65855;42.030;13.078;2024-01-25T00:14:48;6.63;;;3.00;;
76894;SDS011;65855;42.030;13.078;2024-01-25T00:17:13;3.55;;;2.00;;
76894;SDS011;65855;42.030;13.078;2024-01-25T00:19:38;4.40;;;1.30;;
76894;SDS011;65855;42.030;13.078;2024-01-25T00:22:04;2.03;;;1.02;;
76894;SDS011;65855;42.030;13.078;2024-01-25T00:24:30;10.07;;;2.75;;
76894;SDS011;65855;42.030;13.078;2024-01-25T00:26:55;14.23;;;3.53;;
76894;SDS011;65855;42.030;13.078;2024-01-25T00:29:21;7.68;;;3.03;;
76894;SDS011;65855;42.030;13.078;2024-01-25T00:31:46;13.40;;;2.75;;
76894;SDS011;65855;42.030;13.078;2024-01-25T00:34:11;5.33;;;2.43;;
76894;SDS011;65855;42.030;13.078;2024-01-25T00:36:37;3.30;;;2.08;;
76894;SDS011;65855;42.030;13.078;2024-01-25T00:39:02;2.38;;;1.30;;
76894;SDS011;65855;42.030;13.078;2024-01-25T00:41:28;2.30;;;2.08;;
76894;SDS011;65855;42.030;13.078;2024-01-25T00:43:56;2.85;;;1.67;;
76894;SDS011;65855;42.030;13.078;2024-01-25T00:46:21;3.00;;;1.23;;
76894;SDS011;65855;42.030;13.078;2024-01-25T00:48:46;2.22;;;1.38;;
76894;SDS011;65855;42.030;13.078;2024-01-25T00:51:15;1.88;;;1.23;;
76894;SDS011;65855;42.030;13.078;2024-01-25T00:53:43;1.50;;;0.95;;
76894;SDS011;65855;42.030;13.078;2024-01-25T00:56:08;8.75;;;3.28;;
76894;SDS011;65855;42.030;13.078;2024-01-25T00:58:34;15.80;;;6.82;;
76894;SDS011;65855;42.030;13.078;2024-01-25T01:00:59;5.10;;;1.67;;
76894;SDS011;65855;42.030;13.078;2024-01-25T01:03:24;2.88;;;1.38;;
76894;SDS011;65855;42.030;13.078;2024-01-25T01:05:50;3.20;;;1.67;;
76894;SDS011;65855;42.030;13.078;2024-01-25T01:08:15;2.95;;;2.13;;
76894;SDS011;65855;42.030;13.078;2024-01-25T01:10:41;1.90;;;1.00;;
76894;SDS011;65855;42.030;13.078;2024-01-25T01:13:06;2.60;;;1.00;;
76894;SDS011;65855;42.030;13.078;2024-01-25T01:15:31;4.20;;;1.93;;
76894;SDS011;65855;42.030;13.078;2024-01-25T01:17:56;1.92;;;1.00;;
76894;SDS011;65855;42.030;13.078;2024-01-25T01:20:22;4.37;;;1.40;;
76894;SDS011;65855;42.030;13.078;2024-01-25T01:22:47;1.57;;;1.17;;
76894;SDS011;65855;42.030;13.078;2024-01-25T01:25:12;1.90;;;1.25;;
76894;SDS011;65855;42.030;13.078;2024-01-25T01:27:38;1.75;;;0.93;;
76894;SDS011;65855;42.030;13.078;2024-01-25T01:30:03;2.78;;;1.23;;
76894;SDS011;65855;42.030;13.078;2024-01-25T01:32:28;1.65;;;1.27;;
76894;SDS011;65855;42.030;13.078;2024-01-25T01:34:54;1.60;;;1.02;;
76894;SDS011;65855;42.030;13.078;2024-01-25T01:37:19;2.67;;;1.33;;
76894;SDS011;65855;42.030;13.078;2024-01-25T01:39:44;1.80;;;1.17;;
76894;SDS011;65855;42.030;13.078;2024-01-25T01:42:09;1.50;;;0.90;;
76894;SDS011;65855;42.030;13.078;2024-01-25T01:44:35;3.67;;;1.25;;
76894;SDS011;65855;42.030;13.078;2024-01-25T01:47:00;1.40;;;1.13;;
76894;SDS011;65855;42.030;13.078;2024-01-25T01:49:25;2.40;;;1.63;;
76894;SDS011;65855;42.030;13.078;2024-01-25T01:51:51;2.13;;;1.87;;
76894;SDS011;65855;42.030;13.078;2024-01-25T01:54:16;1.35;;;0.82;;
76894;SDS011;65855;42.030;13.078;2024-01-25T01:56:42;2.60;;;1.20;;
76894;SDS011;65855;42.030;13.078;2024-01-25T01:59:09;1.85;;;1.05;;
76894;SDS011;65855;42.030;13.078;2024-01-25T02:01:35;1.67;;;1.25;;
76894;SDS011;65855;42.030;13.078;2024-01-25T02:04:01;1.97;;;1.50;;
76894;SDS011;65855;42.030;13.078;2024-01-25T02:06:26;1.52;;;1.00;;
76894;SDS011;65855;42.030;13.078;2024-01-25T02:08:51;2.50;;;2.03;;
76894;SDS011;65855;42.030;13.078;2024-01-25T02:11:18;2.80;;;1.55;;
76894;SDS011;65855;42.030;13.078;2024-01-25T02:13:44;2.22;;;1.92;;
76894;SDS011;65855;42.030;13.078;2024-01-25T02:16:09;1.95;;;1.75;;
76894;SDS011;65855;42.030;13.078;2024-01-25T02:18:34;2.42;;;1.70;;
76894;SDS011;65855;42.030;13.078;2024-01-25T02:21:00;3.27;;;1.37;;
76894;SDS011;65855;42.030;13.078;2024-01-25T02:23:25;1.73;;;0.90;;
76894;SDS011;65855;42.030;13.078;2024-01-25T02:25:50;2.47;;;0.98;;
76894;SDS011;65855;42.030;13.078;2024-01-25T02:28:16;2.53;;;1.23;;
76894;SDS011;65855;42.030;13.078;2024-01-25T02:30:41;3.47;;;1.63;;
76894;SDS011;65855;42.030;13.078;2024-01-25T02:33:06;1.67;;;1.07;;
76894;SDS011;65855;42.030;13.078;2024-01-25T02:35:32;2.83;;;1.10;;
76894;SDS011;65855;42.030;13.078;2024-01-25T02:37:57;5.07;;;3.00;;
76894;SDS011;65855;42.030;13.078;2024-01-25T02:40:22;1.80;;;0.90;;
76894;SDS011;65855;42.030;13.078;2024-01-25T02:42:48;2.33;;;1.33;;
76894;SDS011;65855;42.030;13.078;2024-01-25T02:45:13;5.50;;;2.10;;
76894;SDS011;65855;42.030;13.078;2024-01-25T02:47:38;3.47;;;1.90;;
76894;SDS011;65855;42.030;13.078;2024-01-25T02:50:04;2.33;;;1.57;;
76894;SDS011;65855;42.030;13.078;2024-01-25T02:52:29;2.03;;;1.00;;
76894;SDS011;65855;42.030;13.078;2024-01-25T02:54:54;6.17;;;1.43;;
76894;SDS011;65855;42.030;13.078;2024-01-25T02:57:20;3.17;;;1.73;;
76894;SDS011;65855;42.030;13.078;2024-01-25T02:59:45;1.97;;;1.17;;
76894;SDS011;65855;42.030;13.078;2024-01-25T03:02:11;1.52;;;1.05;;
76894;SDS011;65855;42.030;13.078;2024-01-25T03:04:37;2.83;;;1.63;;
76894;SDS011;65855;42.030;13.078;2024-01-25T03:07:02;1.48;;;1.08;;
76894;SDS011;65855;42.030;13.078;2024-01-25T03:09:27;1.83;;;1.10;;
76894;SDS011;65855;42.030;13.078;2024-01-25T03:11:53;1.67;;;1.05;;
76894;SDS011;65855;42.030;13.078;2024-01-25T03:14:18;1.57;;;1.00;;
76894;SDS011;65855;42.030;13.078;2024-01-25T03:16:43;3.33;;;1.65;;
76894;SDS011;65855;42.030;13.078;2024-01-25T03:19:10;3.28;;;1.48;;
76894;SDS011;65855;42.030;13.078;2024-01-25T03:21:35;2.20;;;1.27;;
76894;SDS011;65855;42.030;13.078;2024-01-25T03:24:00;2.57;;;2.03;;
76894;SDS011;65855;42.030;13.078;2024-01-25T03:26:28;2.45;;;1.48;;
76894;SDS011;65855;42.030;13.078;2024-01-25T03:28:54;2.63;;;2.33;;
76894;SDS011;65855;42.030;13.078;2024-01-25T03:31:19;6.95;;;2.85;;
76894;SDS011;65855;42.030;13.078;2024-01-25T03:33:44;6.55;;;2.47;;
76894;SDS011;65855;42.030;13.078;2024-01-25T03:36:13;3.22;;;1.45;;
76894;SDS011;65855;42.030;13.078;2024-01-25T03:38:38;3.67;;;1.90;;
76894;SDS011;65855;42.030;13.078;2024-01-25T03:41:03;2.17;;;1.20;;
76894;SDS011;65855;42.030;13.078;2024-01-25T03:43:28;2.33;;;1.60;;
76894;SDS011;65855;42.030;13.078;2024-01-25T03:45:54;2.43;;;1.83;;
76894;SDS011;65855;42.030;13.078;2024-01-25T03:48:19;5.73;;;2.37;;
76894;SDS011;65855;42.030;13.078;2024-01-25T03:50:44;13.50;;;4.15;;
76894;SDS011;65855;42.030;13.078;2024-01-25T03:53:10;2.75;;;1.98;;
76894;SDS011;65855;42.030;13.078;2024-01-25T03:55:35;3.08;;;2.88;;
76894;SDS011;65855;42.030;13.078;2024-01-25T03:58:01;2.50;;;1.77;;
76894;SDS011;65855;42.030;13.078;2024-01-25T04:00:26;1.42;;;0.90;;
76894;SDS011;65855;42.030;13.078;2024-01-25T04:02:51;6.78;;;1.73;;
76894;SDS011;65855;42.030;13.078;2024-01-25T04:05:17;5.10;;;2.10;;
76894;SDS011;65855;42.030;13.078;2024-01-25T04:07:42;3.92;;;2.05;;
76894;SDS011;65855;42.030;13.078;2024-01-25T04:10:07;5.25;;;1.60;;
76894;SDS011;65855;42.030;13.078;2024-01-25T04:12:33;2.20;;;1.77;;
76894;SDS011;65855;42.030;13.078;2024-01-25T04:14:58;1.75;;;1.25;;
76894;SDS011;65855;42.030;13.078;2024-01-25T04:17:23;5.13;;;1.98;;
76894;SDS011;65855;42.030;13.078;2024-01-25T04:19:49;2.33;;;1.65;;
76894;SDS011;65855;42.030;13.078;2024-01-25T04:22:14;2.45;;;1.27;;
76894;SDS011;65855;42.030;13.078;2024-01-25T04:24:39;2.45;;;1.30;;
76894;SDS011;65855;42.030;13.078;2024-01-25T04:27:05;7.95;;;2.25;;
76894;SDS011;65855;42.030;13.078;2024-01-25T04:29:30;3.00;;;2.13;;
76894;SDS011;65855;42.030;13.078;2024-01-25T04:31:56;4.53;;;1.70;;
76894;SDS011;65855;42.030;13.078;2024-01-25T04:34:21;2.30;;;1.30;;
76894;SDS011;65855;42.030;13.078;2024-01-25T04:36:46;3.57;;;2.00;;
76894;SDS011;65855;42.030;13.078;2024-01-25T04:39:11;1.43;;;0.80;;
76894;SDS011;65855;42.030;13.078;2024-01-25T04:41:37;1.90;;;1.40;;
76894;SDS011;65855;42.030;13.078;2024-01-25T04:44:02;2.28;;;1.77;;
76894;SDS011;65855;42.030;13.078;2024-01-25T04:46:28;2.28;;;1.65;;
76894;SDS011;65855;42.030;13.078;2024-01-25T04:48:53;2.58;;;2.38;;
76894;SDS011;65855;42.030;13.078;2024-01-25T04:51:19;2.70;;;1.50;;
76894;SDS011;65855;42.030;13.078;2024-01-25T04:53:47;1.67;;;1.00;;
76894;SDS011;65855;42.030;13.078;2024-01-25T04:56:12;1.98;;;1.38;;
76894;SDS011;65855;42.030;13.078;2024-01-25T04:58:37;1.63;;;0.97;;
76894;SDS011;65855;42.030;13.078;2024-01-25T05:01:03;2.30;;;1.42;;
76894;SDS011;65855;42.030;13.078;2024-01-25T05:03:29;2.15;;;1.77;;
76894;SDS011;65855;42.030;13.078;2024-01-25T05:05:54;1.60;;;1.17;;
76894;SDS011;65855;42.030;13.078;2024-01-25T05:08:19;3.23;;;2.17;;
76894;SDS011;65855;42.030;13.078;2024-01-25T05:10:44;1.67;;;1.07;;
76894;SDS011;65855;42.030;13.078;2024-01-25T05:13:10;2.53;;;1.50;;
76894;SDS011;65855;42.030;13.078;2024-01-25T05:15:35;2.42;;;1.83;;
76894;SDS011;65855;42.030;13.078;2024-01-25T05:18:01;2.90;;;1.57;;
76894;SDS011;65855;42.030;13.078;2024-01-25T05:20:26;1.90;;;1.30;;
76894;SDS011;65855;42.030;13.078;2024-01-25T05:22:58;2.45;;;1.27;;
76894;SDS011;65855;42.030;13.078;2024-01-25T05:25:23;1.95;;;0.90;;
76894;SDS011;65855;42.030;13.078;2024-01-25T05:27:49;1.92;;;1.27;;
76894;SDS011;65855;42.030;13.078;2024-01-25T05:30:15;2.10;;;1.10;;
76894;SDS011;65855;42.030;13.078;2024-01-25T05:32:40;1.73;;;1.15;;
76894;SDS011;65855;42.030;13.078;2024-01-25T05:35:05;1.90;;;1.27;;
76894;SDS011;65855;42.030;13.078;2024-01-25T05:37:31;6.82;;;1.92;;
76894;SDS011;65855;42.030;13.078;2024-01-25T05:39:56;2.22;;;1.27;;
76894;SDS011;65855;42.030;13.078;2024-01-25T05:42:22;2.90;;;1.37;;
76894;SDS011;65855;42.030;13.078;2024-01-25T05:44:47;2.80;;;1.95;;
76894;SDS011;65855;42.030;13.078;2024-01-25T05:47:12;3.53;;;1.35;;
76894;SDS011;65855;42.030;13.078;2024-01-25T05:49:38;1.40;;;0.80;;
76894;SDS011;65855;42.030;13.078;2024-01-25T05:52:03;1.47;;;1.03;;
76894;SDS011;65855;42.030;13.078;2024-01-25T05:54:28;2.55;;;2.25;;
76894;SDS011;65855;42.030;13.078;2024-01-25T05:56:54;1.73;;;1.20;;
76894;SDS011;65855;42.030;13.078;2024-01-25T05:59:19;1.45;;;0.95;;
76894;SDS011;65855;42.030;13.078;2024-01-25T06:01:44;1.50;;;0.90;;
76894;SDS011;65855;42.030;13.078;2024-01-25T06:04:09;1.70;;;0.90;;
76894;SDS011;65855;42.030;13.078;2024-01-25T06:06:35;2.07;;;1.00;;
76894;SDS011;65855;42.030;13.078;2024-01-25T06:09:00;2.80;;;1.57;;
76894;SDS011;65855;42.030;13.078;2024-01-25T06:11:25;1.80;;;1.08;;
76894;SDS011;65855;42.030;13.078;2024-01-25T06:13:51;1.90;;;0.90;;
76894;SDS011;65855;42.030;13.078;2024-01-25T06:16:16;3.22;;;1.98;;
76894;SDS011;65855;42.030;13.078;2024-01-25T06:18:41;2.53;;;1.73;;
76894;SDS011;65855;42.030;13.078;2024-01-25T06:21:06;5.47;;;1.23;;
76894;SDS011;65855;42.030;13.078;2024-01-25T06:23:32;2.23;;;1.60;;
76894;SDS011;65855;42.030;13.078;2024-01-25T06:25:57;2.37;;;1.10;;
76894;SDS011;65855;42.030;13.078;2024-01-25T06:28:22;1.88;;;0.82;;
76894;SDS011;65855;42.030;13.078;2024-01-25T06:30:48;1.67;;;1.00;;
76894;SDS011;65855;42.030;13.078;2024-01-25T06:33:13;3.90;;;1.75;;
76894;SDS011;65855;42.030;13.078;2024-01-25T06:35:39;2.60;;;1.23;;
76894;SDS011;65855;42.030;13.078;2024-01-25T06:38:04;3.10;;;2.25;;
76894;SDS011;65855;42.030;13.078;2024-01-25T06:40:29;3.77;;;2.20;;
76894;SDS011;65855;42.030;13.078;2024-01-25T06:42:54;3.30;;;1.57;;
76894;SDS011;65855;42.030;13.078;2024-01-25T06:45:20;4.43;;;2.47;;
76894;SDS011;65855;42.030;13.078;2024-01-25T06:47:45;3.53;;;2.55;;
76894;SDS011;65855;42.030;13.078;2024-01-25T06:50:11;1.98;;;1.08;;
76894;SDS011;65855;42.030;13.078;2024-01-25T06:52:36;5.23;;;3.33;;
76894;SDS011;65855;42.030;13.078;2024-01-25T06:55:02;8.27;;;2.17;;
76894;SDS011;65855;42.030;13.078;2024-01-25T06:57:27;3.63;;;2.25;;
76894;SDS011;65855;42.030;13.078;2024-01-25T06:59:52;1.70;;;1.13;;
76894;SDS011;65855;42.030;13.078;2024-01-25T07:02:18;3.87;;;2.23;;
76894;SDS011;65855;42.030;13.078;2024-01-25T07:04:43;2.38;;;1.42;;
76894;SDS011;65855;42.030;13.078;2024-01-25T07:07:08;2.60;;;1.37;;
76894;SDS011;65855;42.030;13.078;2024-01-25T07:09:34;6.88;;;1.75;;
76894;SDS011;65855;42.030;13.078;2024-01-25T07:11:59;4.37;;;2.67;;
76894;SDS011;65855;42.030;13.078;2024-01-25T07:14:24;2.53;;;1.53;;
76894;SDS011;65855;42.030;13.078;2024-01-25T07:16:49;3.10;;;2.80;;
76894;SDS011;65855;42.030;13.078;2024-01-25T07:19:15;1.43;;;0.93;;
76894;SDS011;65855;42.030;13.078;2024-01-25T07:21:40;2.77;;;2.57;;
76894;SDS011;65855;42.030;13.078;2024-01-25T07:24:05;4.72;;;2.53;;
76894;SDS011;65855;42.030;13.078;2024-01-25T07:26:31;4.85;;;1.95;;
76894;SDS011;65855;42.030;13.078;2024-01-25T07:28:56;4.95;;;1.92;;
76894;SDS011;65855;42.030;13.078;2024-01-25T07:31:27;6.55;;;1.67;;
76894;SDS011;65855;42.030;13.078;2024-01-25T07:33:53;6.15;;;2.10;;
76894;SDS011;65855;42.030;13.078;2024-01-25T07:36:18;4.38;;;2.17;;
76894;SDS011;65855;42.030;13.078;2024-01-25T07:38:44;3.70;;;1.63;;
76894;SDS011;65855;42.030;13.078;2024-01-25T07:41:11;6.75;;;2.58;;
76894;SDS011;65855;42.030;13.078;2024-01-25T07:43:37;6.60;;;2.35;;
76894;SDS011;65855;42.030;13.078;2024-01-25T07:46:02;6.47;;;2.10;;
76894;SDS011;65855;42.030;13.078;2024-01-25T07:48:27;6.03;;;2.00;;
76894;SDS011;65855;42.030;13.078;2024-01-25T07:50:53;7.07;;;2.03;;
76894;SDS011;65855;42.030;13.078;2024-01-25T07:53:18;6.97;;;2.40;;
76894;SDS011;65855;42.030;13.078;2024-01-25T07:55:43;8.10;;;3.70;;
76894;SDS011;65855;42.030;13.078;2024-01-25T07:58:09;8.60;;;3.83;;
76894;SDS011;65855;42.030;13.078;2024-01-25T08:00:34;8.00;;;3.17;;
76894;SDS011;65855;42.030;13.078;2024-01-25T08:02:59;7.97;;;4.15;;
76894;SDS011;65855;42.030;13.078;2024-01-25T08:05:24;8.73;;;3.30;;
76894;SDS011;65855;42.030;13.078;2024-01-25T08:07:50;7.03;;;2.45;;
76894;SDS011;65855;42.030;13.078;2024-01-25T08:10:15;10.30;;;2.27;;
76894;SDS011;65855;42.030;13.078;2024-01-25T08:12:41;5.75;;;2.05;;
76894;SDS011;65855;42.030;13.078;2024-01-25T08:15:09;6.43;;;2.58;;
76894;SDS011;65855;42.030;13.078;2024-01-25T08:17:34;9.63;;;5.70;;
76894;SDS011;65855;42.030;13.078;2024-01-25T08:20:01;10.43;;;5.65;;
76894;SDS011;65855;42.030;13.078;2024-01-25T08:22:27;7.20;;;3.70;;
76894;SDS011;65855;42.030;13.078;2024-01-25T08:24:53;7.93;;;3.17;;
76894;SDS011;65855;42.030;13.078;2024-01-25T08:27:18;6.95;;;2.92;;
76894;SDS011;65855;42.030;13.078;2024-01-25T08:29:44;7.60;;;2.13;;
76894;SDS011;65855;42.030;13.078;2024-01-25T08:32:10;6.30;;;1.75;;
76894;SDS011;65855;42.030;13.078;2024-01-25T08:34:35;5.63;;;1.77;;
76894;SDS011;65855;42.030;13.078;2024-01-25T08:37:00;6.20;;;2.17;;
76894;SDS011;65855;42.030;13.078;2024-01-25T08:39:25;6.93;;;2.33;;
76894;SDS011;65855;42.030;13.078;2024-01-25T08:41:51;7.90;;;2.08;;
76894;SDS011;65855;42.030;13.078;2024-01-25T08:44:16;7.43;;;3.55;;
76894;SDS011;65855;42.030;13.078;2024-01-25T08:46:41;9.07;;;3.25;;
76894;SDS011;65855;42.030;13.078;2024-01-25T08:49:08;7.43;;;2.47;;
76894;SDS011;65855;42.030;13.078;2024-01-25T08:51:35;9.13;;;3.13;;
76894;SDS011;65855;42.030;13.078;2024-01-25T08:54:00;8.55;;;3.40;;
76894;SDS011;65855;42.030;13.078;2024-01-25T08:56:26;6.95;;;3.65;;
76894;SDS011;65855;42.030;13.078;2024-01-25T08:58:51;8.35;;;3.53;;
76894;SDS011;65855;42.030;13.078;2024-01-25T09:01:17;6.65;;;2.53;;
76894;SDS011;65855;42.030;13.078;2024-01-25T09:03:42;11.13;;;3.92;;
76894;SDS011;65855;42.030;13.078;2024-01-25T09:06:08;8.40;;;3.90;;
76894;SDS011;65855;42.030;13.078;2024-01-25T09:08:33;11.37;;;3.47;;
76894;SDS011;65855;42.030;13.078;2024-01-25T09:10:58;10.45;;;5.03;;
76894;SDS011;65855;42.030;13.078;2024-01-25T09:13:24;8.40;;;3.35;;
76894;SDS011;65855;42.030;13.078;2024-01-25T09:15:49;6.90;;;2.47;;
76894;SDS011;65855;42.030;13.078;2024-01-25T09:18:14;6.13;;;2.65;;
76894;SDS011;65855;42.030;13.078;2024-01-25T09:20:40;5.50;;;1.80;;
76894;SDS011;65855;42.030;13.078;2024-01-25T09:23:06;5.18;;;1.67;;
76894;SDS011;65855;42.030;13.078;2024-01-25T09:25:31;5.70;;;1.70;;
76894;SDS011;65855;42.030;13.078;2024-01-25T09:27:57;6.60;;;1.65;;
76894;SDS011;65855;42.030;13.078;2024-01-25T09:30:23;4.72;;;1.50;;
76894;SDS011;65855;42.030;13.078;2024-01-25T09:32:48;10.20;;;2.53;;
76894;SDS011;65855;42.030;13.078;2024-01-25T09:35:13;7.03;;;2.33;;
76894;SDS011;65855;42.030;13.078;2024-01-25T09:37:39;9.18;;;2.70;;
76894;SDS011;65855;42.030;13.078;2024-01-25T09:40:05;7.38;;;2.60;;
76894;SDS011;65855;42.030;13.078;2024-01-25T09:42:30;9.27;;;2.40;;
76894;SDS011;65855;42.030;13.078;2024-01-25T09:44:56;6.45;;;2.30;;
76894;SDS011;65855;42.030;13.078;2024-01-25T09:47:21;6.90;;;2.37;;
76894;SDS011;65855;42.030;13.078;2024-01-25T09:49:47;6.55;;;2.17;;
76894;SDS011;65855;42.030;13.078;2024-01-25T09:52:12;6.45;;;2.40;;
76894;SDS011;65855;42.030;13.078;2024-01-25T09:54:38;9.93;;;3.25;;
76894;SDS011;65855;42.030;13.078;2024-01-25T09:57:06;7.45;;;2.85;;
76894;SDS011;65855;42.030;13.078;2024-01-25T09:59:34;7.03;;;2.20;;
76894;SDS011;65855;42.030;13.078;2024-01-25T10:02:01;8.68;;;2.60;;
76894;SDS011;65855;42.030;13.078;2024-01-25T10:04:26;6.63;;;1.92;;
76894;SDS011;65855;42.030;13.078;2024-01-25T10:06:54;6.63;;;1.23;;
76894;SDS011;65855;42.030;13.078;2024-01-25T10:09:20;7.28;;;1.52;;
76894;SDS011;65855;42.030;13.078;2024-01-25T10:11:45;4.07;;;1.15;;
76894;SDS011;65855;42.030;13.078;2024-01-25T10:14:10;4.60;;;0.80;;
76894;SDS011;65855;42.030;13.078;2024-01-25T10:16:36;4.43;;;0.80;;
76894;SDS011;65855;42.030;13.078;2024-01-25T10:19:01;4.60;;;1.20;;
76894;SDS011;65855;42.030;13.078;2024-01-25T10:21:28;5.38;;;1.05;;
76894;SDS011;65855;42.030;13.078;2024-01-25T10:23:53;5.85;;;1.33;;
76894;SDS011;65855;42.030;13.078;2024-01-25T10:26:23;4.95;;;1.50;;
76894;SDS011;65855;42.030;13.078;2024-01-25T10:28:54;6.32;;;1.27;;
76894;SDS011;65855;42.030;13.078;2024-01-25T10:31:23;5.47;;;1.35;;
76894;SDS011;65855;42.030;13.078;2024-01-25T10:33:51;6.10;;;1.23;;
76894;SDS011;65855;42.030;13.078;2024-01-25T10:36:17;6.18;;;1.17;;
76894;SDS011;65855;42.030;13.078;2024-01-25T10:38:43;4.70;;;1.00;;
76894;SDS011;65855;42.030;13.078;2024-01-25T10:41:09;5.85;;;1.00;;
76894;SDS011;65855;42.030;13.078;2024-01-25T10:43:35;8.40;;;1.35;;
76894;SDS011;65855;42.030;13.078;2024-01-25T10:46:01;6.35;;;1.33;;
76894;SDS011;65855;42.030;13.078;2024-01-25T10:48:27;5.30;;;1.25;;
76894;SDS011;65855;42.030;13.078;2024-01-25T10:50:53;6.97;;;1.58;;
76894;SDS011;65855;42.030;13.078;2024-01-25T10:53:18;6.40;;;1.10;;
76894;SDS011;65855;42.030;13.078;2024-01-25T10:55:44;7.60;;;1.60;;
76894;SDS011;65855;42.030;13.078;2024-01-25T10:58:12;4.50;;;1.00;;
76894;SDS011;65855;42.030;13.078;2024-01-25T11:00:37;6.75;;;1.30;;
76894;SDS011;65855;42.030;13.078;2024-01-25T11:03:03;7.05;;;0.98;;
76894;SDS011;65855;42.030;13.078;2024-01-25T11:05:29;5.47;;;1.33;;
76894;SDS011;65855;42.030;13.078;2024-01-25T11:07:55;4.90;;;1.08;;
76894;SDS011;65855;42.030;13.078;2024-01-25T11:10:21;7.35;;;1.23;;
76894;SDS011;65855;42.030;13.078;2024-01-25T11:12:50;6.15;;;1.17;;
76894;SDS011;65855;42.030;13.078;2024-01-25T11:15:23;3.53;;;0.90;;
76894;SDS011;65855;42.030;13.078;2024-01-25T11:17:55;5.60;;;1.30;;
76894;SDS011;65855;42.030;13.078;2024-01-25T11:20:24;7.03;;;1.35;;
76894;SDS011;65855;42.030;13.078;2024-01-25T11:25:43;7.05;;;1.60;;
76894;SDS011;65855;42.030;13.078;2024-01-25T11:28:10;8.98;;;1.20;;
76894;SDS011;65855;42.030;13.078;2024-01-25T11:30:36;9.13;;;1.83;;
76894;SDS011;65855;42.030;13.078;2024-01-25T11:33:06;8.55;;;1.30;;
76894;SDS011;65855;42.030;13.078;2024-01-25T11:35:32;6.75;;;1.95;;
76894;SDS011;65855;42.030;13.078;2024-01-25T11:37:57;5.47;;;1.38;;
76894;SDS011;65855;42.030;13.078;2024-01-25T11:40:23;8.70;;;1.60;;
76894;SDS011;65855;42.030;13.078;2024-01-25T11:42:48;9.05;;;1.63;;
76894;SDS011;65855;42.030;13.078;2024-01-25T11:45:14;9.13;;;2.03;;
76894;SDS011;65855;42.030;13.078;2024-01-25T11:47:40;5.97;;;1.38;;
76894;SDS011;65855;42.030;13.078;2024-01-25T11:50:06;6.95;;;1.70;;
76894;SDS011;65855;42.030;13.078;2024-01-25T11:52:32;6.43;;;1.65;;
76894;SDS011;65855;42.030;13.078;2024-01-25T11:54:59;5.60;;;1.10;;
76894;SDS011;65855;42.030;13.078;2024-01-25T11:57:24;6.00;;;1.45;;
76894;SDS011;65855;42.030;13.078;2024-01-25T11:59:49;7.38;;;1.23;;
76894;SDS011;65855;42.030;13.078;2024-01-25T12:02:15;4.40;;;0.82;;
76894;SDS011;65855;42.030;13.078;2024-01-25T12:04:40;7.18;;;1.20;;
76894;SDS011;65855;42.030;13.078;2024-01-25T12:07:06;5.70;;;1.52;;
76894;SDS011;65855;42.030;13.078;2024-01-25T12:09:32;6.80;;;1.25;;
76894;SDS011;65855;42.030;13.078;2024-01-25T12:11:57;6.43;;;1.07;;
76894;SDS011;65855;42.030;13.078;2024-01-25T12:14:25;5.57;;;0.85;;
76894;SDS011;65855;42.030;13.078;2024-01-25T12:16:50;4.25;;;1.15;;
76894;SDS011;65855;42.030;13.078;2024-01-25T12:19:16;8.13;;;1.10;;
76894;SDS011;65855;42.030;13.078;2024-01-25T12:21:43;6.10;;;1.07;;
76894;SDS011;65855;42.030;13.078;2024-01-25T12:24:09;6.60;;;1.13;;
76894;SDS011;65855;42.030;13.078;2024-01-25T12:26:35;6.25;;;1.10;;
76894;SDS011;65855;42.030;13.078;2024-01-25T12:29:00;5.75;;;1.27;;
76894;SDS011;65855;42.030;13.078;2024-01-25T12:31:26;5.00;;;1.03;;
76894;SDS011;65855;42.030;13.078;2024-01-25T12:33:51;5.35;;;1.25;;
76894;SDS011;65855;42.030;13.078;2024-01-25T12:36:16;5.20;;;1.00;;
76894;SDS011;65855;42.030;13.078;2024-01-25T12:38:42;6.70;;;1.30;;
76894;SDS011;65855;42.030;13.078;2024-01-25T12:41:07;5.87;;;1.23;;
76894;SDS011;65855;42.030;13.078;2024-01-25T12:43:32;6.93;;;1.35;;
76894;SDS011;65855;42.030;13.078;2024-01-25T12:45:58;6.53;;;1.08;;
76894;SDS011;65855;42.030;13.078;2024-01-25T12:48:23;5.95;;;1.30;;
76894;SDS011;65855;42.030;13.078;2024-01-25T12:50:48;7.97;;;1.27;;
76894;SDS011;65855;42.030;13.078;2024-01-25T12:53:14;5.88;;;1.40;;
76894;SDS011;65855;42.030;13.078;2024-01-25T12:55:39;6.55;;;1.60;;
76894;SDS011;65855;42.030;13.078;2024-01-25T12:58:05;5.80;;;1.48;;
76894;SDS011;65855;42.030;13.078;2024-01-25T13:00:30;8.27;;;1.67;;
76894;SDS011;65855;42.030;13.078;2024-01-25T13:02:56;7.20;;;2.03;;
76894;SDS011;65855;42.030;13.078;2024-01-25T13:05:22;8.00;;;2.33;;
76894;SDS011;65855;42.030;13.078;2024-01-25T13:07:47;6.25;;;1.67;;
76894;SDS011;65855;42.030;13.078;2024-01-25T13:10:13;7.73;;;2.37;;
76894;SDS011;65855;42.030;13.078;2024-01-25T13:12:38;5.80;;;1.70;;
76894;SDS011;65855;42.030;13.078;2024-01-25T13:15:04;7.05;;;1.52;;
76894;SDS011;65855;42.030;13.078;2024-01-25T13:17:29;5.68;;;1.48;;
76894;SDS011;65855;42.030;13.078;2024-01-25T13:19:56;5.40;;;1.27;;
76894;SDS011;65855;42.030;13.078;2024-01-25T13:22:22;7.15;;;1.38;;
76894;SDS011;65855;42.030;13.078;2024-01-25T13:24:49;5.68;;;1.65;;
76894;SDS011;65855;42.030;13.078;2024-01-25T13:27:14;5.50;;;1.57;;
76894;SDS011;65855;42.030;13.078;2024-01-25T13:29:39;6.23;;;1.73;;
76894;SDS011;65855;42.030;13.078;2024-01-25T13:32:05;6.55;;;0.98;;
76894;SDS011;65855;42.030;13.078;2024-01-25T13:34:30;8.07;;;1.70;;
76894;SDS011;65855;42.030;13.078;2024-01-25T13:36:55;5.70;;;1.30;;
76894;SDS011;65855;42.030;13.078;2024-01-25T13:39:21;6.85;;;1.70;;
76894;SDS011;65855;42.030;13.078;2024-01-25T13:41:47;8.15;;;1.65;;
76894;SDS011;65855;42.030;13.078;2024-01-25T13:44:14;6.38;;;1.63;;
76894;SDS011;65855;42.030;13.078;2024-01-25T13:46:39;5.65;;;1.55;;
76894;SDS011;65855;42.030;13.078;2024-01-25T13:49:04;7.53;;;3.27;;
76894;SDS011;65855;42.030;13.078;2024-01-25T13:51:29;11.17;;;6.57;;
76894;SDS011;65855;42.030;13.078;2024-01-25T13:53:55;12.17;;;6.13;;
76894;SDS011;65855;42.030;13.078;2024-01-25T13:56:20;11.23;;;4.13;;
76894;SDS011;65855;42.030;13.078;2024-01-25T13:58:45;8.13;;;3.07;;
76894;SDS011;65855;42.030;13.078;2024-01-25T14:01:11;11.30;;;4.90;;
76894;SDS011;65855;42.030;13.078;2024-01-25T14:03:36;7.10;;;3.53;;
76894;SDS011;65855;42.030;13.078;2024-01-25T14:06:01;8.20;;;1.67;;
76894;SDS011;65855;42.030;13.078;2024-01-25T14:08:30;6.78;;;3.20;;
76894;SDS011;65855;42.030;13.078;2024-01-25T14:10:56;8.60;;;3.15;;
76894;SDS011;65855;42.030;13.078;2024-01-25T14:13:21;7.20;;;3.13;;
76894;SDS011;65855;42.030;13.078;2024-01-25T14:15:46;8.98;;;3.65;;
76894;SDS011;65855;42.030;13.078;2024-01-25T14:18:12;9.05;;;7.47;;
76894;SDS011;65855;42.030;13.078;2024-01-25T14:20:37;7.45;;;3.55;;
76894;SDS011;65855;42.030;13.078;2024-01-25T14:23:03;9.27;;;2.90;;
76894;SDS011;65855;42.030;13.078;2024-01-25T14:25:28;12.77;;;5.10;;